sensor_id;sensor_type;location;lat;lon;timestamp;temperature;humidity
68943;DHT22;60852;52.190;4.422;2023-07-22T00:01:23;17.34;70.68
68943;DHT22;60852;52.190;4.422;2023-07-22T00:03:48;17.30;70.59
68943;DHT22;60852;52.190;4.422;2023-07-22T00:06:14;17.25;70.67
68943;DHT22;60852;52.190;4.422;2023-07-22T00:08:39;17.25;70.59
68943;DHT22;60852;52.190;4.422;2023-07-22T00:11:05;17.22;70.92
68943;DHT22;60852;52.190;4.422;2023-07-22T00:13:32;17.21;71.31
68943;DHT22;60852;52.190;4.422;2023-07-22T00:15:58;17.20;71.35
68943;DHT22;60852;52.190;4.422;2023-07-22T00:18:30;17.17;71.24
68943;DHT22;60852;52.190;4.422;2023-07-22T00:20:56;17.15;71.32
68943;DHT22;60852;52.190;4.422;2023-07-22T00:23:22;17.11;71.68
68943;DHT22;60852;52.190;4.422;2023-07-22T00:25:48;17.08;71.79
68943;DHT22;60852;52.190;4.422;2023-07-22T00:28:14;17.06;71.73
68943;DHT22;60852;52.190;4.422;2023-07-22T00:30:39;16.99;72.00
68943;DHT22;60852;52.190;4.422;2023-07-22T00:33:05;17.03;72.35
68943;DHT22;60852;52.190;4.422;2023-07-22T00:35:31;17.00;72.26
68943;DHT22;60852;52.190;4.422;2023-07-22T00:37:57;17.03;72.03
68943;DHT22;60852;52.190;4.422;2023-07-22T00:40:23;16.97;72.00
68943;DHT22;60852;52.190;4.422;2023-07-22T00:42:49;16.94;71.84
68943;DHT22;60852;52.190;4.422;2023-07-22T00:45:14;16.94;72.13
68943;DHT22;60852;52.190;4.422;2023-07-22T00:47:40;16.97;72.24
68943;DHT22;60852;52.190;4.422;2023-07-22T00:50:07;16.95;71.80
68943;DHT22;60852;52.190;4.422;2023-07-22T00:52:37;16.97;72.10
68943;DHT22;60852;52.190;4.422;2023-07-22T00:55:04;17.04;71.82
68943;DHT22;60852;52.190;4.422;2023-07-22T00:57:30;17.04;71.96
68943;DHT22;60852;52.190;4.422;2023-07-22T00:59:56;17.06;71.86
68943;DHT22;60852;52.190;4.422;2023-07-22T01:02:22;17.10;71.74
68943;DHT22;60852;52.190;4.422;2023-07-22T01:04:49;17.08;71.53
68943;DHT22;60852;52.190;4.422;2023-07-22T01:07:15;17.18;71.54
68943;DHT22;60852;52.190;4.422;2023-07-22T01:09:42;17.18;71.17
68943;DHT22;60852;52.190;4.422;2023-07-22T01:12:09;17.21;71.31
68943;DHT22;60852;52.190;4.422;2023-07-22T01:14:36;17.25;71.43
68943;DHT22;60852;52.190;4.422;2023-07-22T01:17:06;17.27;71.38
68943;DHT22;60852;52.190;4.422;2023-07-22T01:19:33;17.21;71.48
68943;DHT22;60852;52.190;4.422;2023-07-22T01:22:06;17.18;71.69
68943;DHT22;60852;52.190;4.422;2023-07-22T01:24:34;17.12;71.87
68943;DHT22;60852;52.190;4.422;2023-07-22T01:27:01;17.07;72.02
68943;DHT22;60852;52.190;4.422;2023-07-22T01:29:28;16.97;72.45
68943;DHT22;60852;52.190;4.422;2023-07-22T01:31:55;16.88;72.74
68943;DHT22;60852;52.190;4.422;2023-07-22T01:34:22;16.90;72.83
68943;DHT22;60852;52.190;4.422;2023-07-22T01:36:48;16.91;72.73
68943;DHT22;60852;52.190;4.422;2023-07-22T01:39:15;16.95;72.79
68943;DHT22;60852;52.190;4.422;2023-07-22T01:41:41;17.01;72.51
68943;DHT22;60852;52.190;4.422;2023-07-22T01:44:07;17.06;72.24
68943;DHT22;60852;52.190;4.422;2023-07-22T01:46:33;17.11;71.89
68943;DHT22;60852;52.190;4.422;2023-07-22T01:48:59;17.14;71.62
68943;DHT22;60852;52.190;4.422;2023-07-22T01:51:24;17.22;71.38
68943;DHT22;60852;52.190;4.422;2023-07-22T01:53:51;17.28;70.65
68943;DHT22;60852;52.190;4.422;2023-07-22T01:56:16;17.30;70.39
68943;DHT22;60852;52.190;4.422;2023-07-22T01:58:42;17.38;70.25
68943;DHT22;60852;52.190;4.422;2023-07-22T02:01:08;17.35;70.03
68943;DHT22;60852;52.190;4.422;2023-07-22T02:03:33;17.34;70.26
68943;DHT22;60852;52.190;4.422;2023-07-22T02:06:03;17.34;70.30
68943;DHT22;60852;52.190;4.422;2023-07-22T02:08:29;17.34;70.39
68943;DHT22;60852;52.190;4.422;2023-07-22T02:10:54;17.32;70.62
68943;DHT22;60852;52.190;4.422;2023-07-22T02:13:20;17.32;70.99
68943;DHT22;60852;52.190;4.422;2023-07-22T02:15:45;17.35;70.89
68943;DHT22;60852;52.190;4.422;2023-07-22T02:18:12;17.39;70.88
68943;DHT22;60852;52.190;4.422;2023-07-22T02:20:37;17.31;70.80
68943;DHT22;60852;52.190;4.422;2023-07-22T02:23:03;17.24;71.21
68943;DHT22;60852;52.190;4.422;2023-07-22T02:25:28;17.27;71.33
68943;DHT22;60852;52.190;4.422;2023-07-22T02:27:54;17.28;71.29
68943;DHT22;60852;52.190;4.422;2023-07-22T02:30:19;17.22;71.38
68943;DHT22;60852;52.190;4.422;2023-07-22T02:32:45;17.18;71.64
68943;DHT22;60852;52.190;4.422;2023-07-22T02:35:10;17.17;71.65
68943;DHT22;60852;52.190;4.422;2023-07-22T02:37:38;17.12;71.86
68943;DHT22;60852;52.190;4.422;2023-07-22T02:40:04;17.12;71.99
68943;DHT22;60852;52.190;4.422;2023-07-22T02:42:37;17.11;72.02
68943;DHT22;60852;52.190;4.422;2023-07-22T02:45:03;17.07;72.03
68943;DHT22;60852;52.190;4.422;2023-07-22T02:47:31;17.03;72.24
68943;DHT22;60852;52.190;4.422;2023-07-22T02:49:57;16.95;72.37
68943;DHT22;60852;52.190;4.422;2023-07-22T02:52:22;16.90;72.59
68943;DHT22;60852;52.190;4.422;2023-07-22T02:55:15;16.80;73.08
68943;DHT22;60852;52.190;4.422;2023-07-22T02:57:45;16.81;73.33
68943;DHT22;60852;52.190;4.422;2023-07-22T03:00:16;16.81;73.35
68943;DHT22;60852;52.190;4.422;2023-07-22T03:02:55;16.81;73.25
68943;DHT22;60852;52.190;4.422;2023-07-22T03:05:27;16.81;73.41
68943;DHT22;60852;52.190;4.422;2023-07-22T03:07:53;16.83;73.24
68943;DHT22;60852;52.190;4.422;2023-07-22T03:10:19;16.84;72.98
68943;DHT22;60852;52.190;4.422;2023-07-22T03:12:45;16.84;72.90
68943;DHT22;60852;52.190;4.422;2023-07-22T03:15:10;16.87;72.57
68943;DHT22;60852;52.190;4.422;2023-07-22T03:17:39;16.88;72.25
68943;DHT22;60852;52.190;4.422;2023-07-22T03:20:07;16.90;71.83
68943;DHT22;60852;52.190;4.422;2023-07-22T03:22:40;16.95;71.41
68943;DHT22;60852;52.190;4.422;2023-07-22T03:25:06;17.03;70.99
68943;DHT22;60852;52.190;4.422;2023-07-22T03:27:34;17.10;70.64
68943;DHT22;60852;52.190;4.422;2023-07-22T03:30:00;17.15;70.13
68943;DHT22;60852;52.190;4.422;2023-07-22T03:32:26;17.21;70.12
68943;DHT22;60852;52.190;4.422;2023-07-22T03:34:51;17.30;69.76
68943;DHT22;60852;52.190;4.422;2023-07-22T03:37:17;17.35;69.69
68943;DHT22;60852;52.190;4.422;2023-07-22T03:39:44;17.39;69.52
68943;DHT22;60852;52.190;4.422;2023-07-22T03:42:10;17.46;69.56
68943;DHT22;60852;52.190;4.422;2023-07-22T03:44:35;17.52;69.51
68943;DHT22;60852;52.190;4.422;2023-07-22T03:47:01;17.56;69.65
68943;DHT22;60852;52.190;4.422;2023-07-22T03:49:27;17.65;69.60
68943;DHT22;60852;52.190;4.422;2023-07-22T03:51:52;17.68;69.54
68943;DHT22;60852;52.190;4.422;2023-07-22T03:54:18;17.71;69.52
68943;DHT22;60852;52.190;4.422;2023-07-22T03:56:43;17.68;69.61
68943;DHT22;60852;52.190;4.422;2023-07-22T03:59:08;17.69;69.60
68943;DHT22;60852;52.190;4.422;2023-07-22T04:01:34;17.68;69.58
68943;DHT22;60852;52.190;4.422;2023-07-22T04:03:59;17.63;69.77
68943;DHT22;60852;52.190;4.422;2023-07-22T04:06:25;17.58;70.07
68943;DHT22;60852;52.190;4.422;2023-07-22T04:08:51;17.52;70.36
68943;DHT22;60852;52.190;4.422;2023-07-22T04:11:17;17.49;70.62
68943;DHT22;60852;52.190;4.422;2023-07-22T04:13:42;17.45;70.79
68943;DHT22;60852;52.190;4.422;2023-07-22T04:16:08;17.35;70.99
68943;DHT22;60852;52.190;4.422;2023-07-22T04:18:33;17.32;71.22
68943;DHT22;60852;52.190;4.422;2023-07-22T04:21:00;17.30;71.41
68943;DHT22;60852;52.190;4.422;2023-07-22T04:23:26;17.27;71.61
68943;DHT22;60852;52.190;4.422;2023-07-22T04:25:52;17.11;72.03
68943;DHT22;60852;52.190;4.422;2023-07-22T04:28:17;17.08;72.27
68943;DHT22;60852;52.190;4.422;2023-07-22T04:30:43;17.10;72.65
68943;DHT22;60852;52.190;4.422;2023-07-22T04:33:08;17.14;72.57
68943;DHT22;60852;52.190;4.422;2023-07-22T04:35:42;17.15;72.19
68943;DHT22;60852;52.190;4.422;2023-07-22T04:38:07;17.10;72.22
68943;DHT22;60852;52.190;4.422;2023-07-22T04:40:33;17.08;72.54
68943;DHT22;60852;52.190;4.422;2023-07-22T04:42:58;17.07;72.78
68943;DHT22;60852;52.190;4.422;2023-07-22T04:45:24;17.14;72.91
68943;DHT22;60852;52.190;4.422;2023-07-22T04:47:50;17.12;72.97
68943;DHT22;60852;52.190;4.422;2023-07-22T04:50:16;17.15;73.03
68943;DHT22;60852;52.190;4.422;2023-07-22T04:52:44;17.11;73.09
68943;DHT22;60852;52.190;4.422;2023-07-22T04:55:10;17.11;73.23
68943;DHT22;60852;52.190;4.422;2023-07-22T04:57:37;17.10;73.35
68943;DHT22;60852;52.190;4.422;2023-07-22T05:00:03;17.11;73.37
68943;DHT22;60852;52.190;4.422;2023-07-22T05:02:30;17.14;73.49
68943;DHT22;60852;52.190;4.422;2023-07-22T05:04:58;17.14;73.57
68943;DHT22;60852;52.190;4.422;2023-07-22T05:07:23;17.12;73.78
68943;DHT22;60852;52.190;4.422;2023-07-22T05:09:49;17.17;73.82
68943;DHT22;60852;52.190;4.422;2023-07-22T05:12:17;17.17;74.02
68943;DHT22;60852;52.190;4.422;2023-07-22T05:14:42;17.22;74.11
68943;DHT22;60852;52.190;4.422;2023-07-22T05:17:08;17.28;74.19
68943;DHT22;60852;52.190;4.422;2023-07-22T05:19:33;17.36;74.11
68943;DHT22;60852;52.190;4.422;2023-07-22T05:21:59;17.43;74.24
68943;DHT22;60852;52.190;4.422;2023-07-22T05:24:24;17.49;74.26
68943;DHT22;60852;52.190;4.422;2023-07-22T05:26:50;17.56;74.35
68943;DHT22;60852;52.190;4.422;2023-07-22T05:29:15;17.58;74.53
68943;DHT22;60852;52.190;4.422;2023-07-22T05:31:41;17.49;75.05
68943;DHT22;60852;52.190;4.422;2023-07-22T05:34:06;17.53;75.58
68943;DHT22;60852;52.190;4.422;2023-07-22T05:36:32;17.62;75.76
68943;DHT22;60852;52.190;4.422;2023-07-22T05:38:57;17.71;75.85
68943;DHT22;60852;52.190;4.422;2023-07-22T05:41:23;17.76;75.92
68943;DHT22;60852;52.190;4.422;2023-07-22T05:43:48;17.82;76.01
68943;DHT22;60852;52.190;4.422;2023-07-22T05:46:14;17.87;76.18
68943;DHT22;60852;52.190;4.422;2023-07-22T05:48:39;17.92;76.34
68943;DHT22;60852;52.190;4.422;2023-07-22T05:51:05;18.00;76.48
68943;DHT22;60852;52.190;4.422;2023-07-22T05:53:32;18.04;76.68
68943;DHT22;60852;52.190;4.422;2023-07-22T05:55:57;17.99;76.84
68943;DHT22;60852;52.190;4.422;2023-07-22T05:58:23;18.00;76.99
68943;DHT22;60852;52.190;4.422;2023-07-22T06:00:49;17.96;77.27
68943;DHT22;60852;52.190;4.422;2023-07-22T06:03:17;18.00;77.46
68943;DHT22;60852;52.190;4.422;2023-07-22T06:05:43;18.00;77.80
68943;DHT22;60852;52.190;4.422;2023-07-22T06:08:08;17.99;78.12
68943;DHT22;60852;52.190;4.422;2023-07-22T06:10:34;18.01;78.30
68943;DHT22;60852;52.190;4.422;2023-07-22T06:12:59;18.10;78.46
68943;DHT22;60852;52.190;4.422;2023-07-22T06:15:25;18.13;78.53
68943;DHT22;60852;52.190;4.422;2023-07-22T06:17:50;18.13;78.63
68943;DHT22;60852;52.190;4.422;2023-07-22T06:20:16;18.13;78.92
68943;DHT22;60852;52.190;4.422;2023-07-22T06:22:41;18.10;79.33
68943;DHT22;60852;52.190;4.422;2023-07-22T06:25:08;18.10;79.49
68943;DHT22;60852;52.190;4.422;2023-07-22T06:27:33;18.07;79.68
68943;DHT22;60852;52.190;4.422;2023-07-22T06:30:00;18.17;80.01
68943;DHT22;60852;52.190;4.422;2023-07-22T06:32:25;18.23;80.03
68943;DHT22;60852;52.190;4.422;2023-07-22T06:34:51;18.34;79.81
68943;DHT22;60852;52.190;4.422;2023-07-22T06:37:16;18.38;79.62
68943;DHT22;60852;52.190;4.422;2023-07-22T06:39:42;18.37;79.65
68943;DHT22;60852;52.190;4.422;2023-07-22T06:42:07;18.47;79.71
68943;DHT22;60852;52.190;4.422;2023-07-22T06:44:33;18.54;79.18
68943;DHT22;60852;52.190;4.422;2023-07-22T06:46:58;18.54;79.49
68943;DHT22;60852;52.190;4.422;2023-07-22T06:49:23;18.61;79.50
68943;DHT22;60852;52.190;4.422;2023-07-22T06:51:49;18.55;79.30
68943;DHT22;60852;52.190;4.422;2023-07-22T06:54:14;18.51;79.40
68943;DHT22;60852;52.190;4.422;2023-07-22T06:56:40;18.57;79.72
68943;DHT22;60852;52.190;4.422;2023-07-22T06:59:06;18.62;79.72
68943;DHT22;60852;52.190;4.422;2023-07-22T07:01:32;18.71;79.44
68943;DHT22;60852;52.190;4.422;2023-07-22T07:03:57;18.71;79.32
68943;DHT22;60852;52.190;4.422;2023-07-22T07:06:22;18.72;79.42
68943;DHT22;60852;52.190;4.422;2023-07-22T07:08:48;18.84;79.44
68943;DHT22;60852;52.190;4.422;2023-07-22T07:11:14;18.91;79.18
68943;DHT22;60852;52.190;4.422;2023-07-22T07:13:39;18.92;79.06
68943;DHT22;60852;52.190;4.422;2023-07-22T07:16:24;18.91;79.10
68943;DHT22;60852;52.190;4.422;2023-07-22T07:18:51;18.91;78.96
68943;DHT22;60852;52.190;4.422;2023-07-22T07:21:17;18.94;78.98
68943;DHT22;60852;52.190;4.422;2023-07-22T07:23:43;18.94;79.06
68943;DHT22;60852;52.190;4.422;2023-07-22T07:26:09;18.88;79.16
68943;DHT22;60852;52.190;4.422;2023-07-22T07:28:34;18.95;79.22
68943;DHT22;60852;52.190;4.422;2023-07-22T07:31:00;19.05;79.14
68943;DHT22;60852;52.190;4.422;2023-07-22T07:33:25;19.15;78.36
68943;DHT22;60852;52.190;4.422;2023-07-22T07:35:51;19.18;77.42
68943;DHT22;60852;52.190;4.422;2023-07-22T07:38:16;19.19;76.90
68943;DHT22;60852;52.190;4.422;2023-07-22T07:40:42;19.24;76.32
68943;DHT22;60852;52.190;4.422;2023-07-22T07:43:08;19.49;75.89
68943;DHT22;60852;52.190;4.422;2023-07-22T07:45:37;19.56;72.43
68943;DHT22;60852;52.190;4.422;2023-07-22T07:48:04;19.71;73.12
68943;DHT22;60852;52.190;4.422;2023-07-22T07:50:29;19.82;73.06
68943;DHT22;60852;52.190;4.422;2023-07-22T07:52:55;19.75;72.60
68943;DHT22;60852;52.190;4.422;2023-07-22T07:55:20;19.78;73.02
68943;DHT22;60852;52.190;4.422;2023-07-22T07:57:45;19.77;72.84
68943;DHT22;60852;52.190;4.422;2023-07-22T08:00:11;19.79;73.16
68943;DHT22;60852;52.190;4.422;2023-07-22T08:02:37;19.82;71.07
68943;DHT22;60852;52.190;4.422;2023-07-22T08:05:03;19.88;71.32
68943;DHT22;60852;52.190;4.422;2023-07-22T08:07:28;19.91;69.84
68943;DHT22;60852;52.190;4.422;2023-07-22T08:09:54;20.11;69.10
68943;DHT22;60852;52.190;4.422;2023-07-22T08:12:19;20.12;64.78
68943;DHT22;60852;52.190;4.422;2023-07-22T08:14:45;20.12;63.81
68943;DHT22;60852;52.190;4.422;2023-07-22T08:17:10;20.18;62.68
68943;DHT22;60852;52.190;4.422;2023-07-22T08:19:36;20.29;62.10
68943;DHT22;60852;52.190;4.422;2023-07-22T08:22:02;20.40;61.60
68943;DHT22;60852;52.190;4.422;2023-07-22T08:24:27;20.53;60.89
68943;DHT22;60852;52.190;4.422;2023-07-22T08:26:53;20.76;60.89
68943;DHT22;60852;52.190;4.422;2023-07-22T08:29:18;20.86;59.49
68943;DHT22;60852;52.190;4.422;2023-07-22T08:31:45;20.91;59.33
68943;DHT22;60852;52.190;4.422;2023-07-22T08:34:10;20.86;61.02
68943;DHT22;60852;52.190;4.422;2023-07-22T08:36:35;20.60;62.25
68943;DHT22;60852;52.190;4.422;2023-07-22T08:39:01;20.67;63.08
68943;DHT22;60852;52.190;4.422;2023-07-22T08:41:27;20.69;61.30
68943;DHT22;60852;52.190;4.422;2023-07-22T08:43:54;20.69;59.42
68943;DHT22;60852;52.190;4.422;2023-07-22T08:46:22;20.76;58.76
68943;DHT22;60852;52.190;4.422;2023-07-22T08:48:52;20.77;58.55
68943;DHT22;60852;52.190;4.422;2023-07-22T08:51:19;20.88;59.01
68943;DHT22;60852;52.190;4.422;2023-07-22T08:53:46;20.88;59.75
68943;DHT22;60852;52.190;4.422;2023-07-22T08:56:11;20.96;59.96
68943;DHT22;60852;52.190;4.422;2023-07-22T08:58:38;21.01;59.25
68943;DHT22;60852;52.190;4.422;2023-07-22T09:01:05;20.94;57.58
68943;DHT22;60852;52.190;4.422;2023-07-22T09:03:32;20.98;57.91
68943;DHT22;60852;52.190;4.422;2023-07-22T09:05:58;20.88;57.73
68943;DHT22;60852;52.190;4.422;2023-07-22T09:08:24;20.87;58.32
68943;DHT22;60852;52.190;4.422;2023-07-22T09:10:50;20.83;59.45
68943;DHT22;60852;52.190;4.422;2023-07-22T09:13:18;20.93;59.58
68943;DHT22;60852;52.190;4.422;2023-07-22T09:15:45;20.91;57.91
68943;DHT22;60852;52.190;4.422;2023-07-22T09:18:10;20.88;58.20
68943;DHT22;60852;52.190;4.422;2023-07-22T09:20:36;20.97;56.99
68943;DHT22;60852;52.190;4.422;2023-07-22T09:23:01;20.91;57.08
68943;DHT22;60852;52.190;4.422;2023-07-22T09:25:28;20.96;56.66
68943;DHT22;60852;52.190;4.422;2023-07-22T09:27:55;20.69;56.70
68943;DHT22;60852;52.190;4.422;2023-07-22T09:30:33;20.52;57.50
68943;DHT22;60852;52.190;4.422;2023-07-22T09:33:01;20.57;58.28
68943;DHT22;60852;52.190;4.422;2023-07-22T09:35:47;20.57;59.33
68943;DHT22;60852;52.190;4.422;2023-07-22T09:38:13;20.72;59.76
68943;DHT22;60852;52.190;4.422;2023-07-22T09:40:42;20.62;58.81
68943;DHT22;60852;52.190;4.422;2023-07-22T09:43:11;20.50;59.57
68943;DHT22;60852;52.190;4.422;2023-07-22T09:45:38;20.65;59.71
68943;DHT22;60852;52.190;4.422;2023-07-22T09:48:04;20.57;59.03
68943;DHT22;60852;52.190;4.422;2023-07-22T09:50:30;20.73;59.59
68943;DHT22;60852;52.190;4.422;2023-07-22T09:52:57;20.96;58.64
68943;DHT22;60852;52.190;4.422;2023-07-22T09:55:30;20.79;57.11
68943;DHT22;60852;52.190;4.422;2023-07-22T09:58:04;20.59;57.82
68943;DHT22;60852;52.190;4.422;2023-07-22T10:00:32;20.42;58.01
68943;DHT22;60852;52.190;4.422;2023-07-22T10:03:00;20.45;57.83
68943;DHT22;60852;52.190;4.422;2023-07-22T10:05:27;20.56;57.85
68943;DHT22;60852;52.190;4.422;2023-07-22T10:07:58;20.72;57.71
68943;DHT22;60852;52.190;4.422;2023-07-22T10:10:35;20.91;58.20
68943;DHT22;60852;52.190;4.422;2023-07-22T10:13:03;20.72;61.94
68943;DHT22;60852;52.190;4.422;2023-07-22T10:15:33;20.60;62.94
68943;DHT22;60852;52.190;4.422;2023-07-22T10:18:01;20.67;62.96
68943;DHT22;60852;52.190;4.422;2023-07-22T10:20:28;20.55;59.36
68943;DHT22;60852;52.190;4.422;2023-07-22T10:22:55;20.63;58.41
68943;DHT22;60852;52.190;4.422;2023-07-22T10:25:22;20.73;57.86
68943;DHT22;60852;52.190;4.422;2023-07-22T10:27:49;20.70;57.72
68943;DHT22;60852;52.190;4.422;2023-07-22T10:30:17;20.73;57.75
68943;DHT22;60852;52.190;4.422;2023-07-22T10:32:52;20.87;57.12
68943;DHT22;60852;52.190;4.422;2023-07-22T10:35:34;20.94;56.81
68943;DHT22;60852;52.190;4.422;2023-07-22T10:43:16;21.85;55.22
68943;DHT22;60852;52.190;4.422;2023-07-22T10:45:56;21.83;53.72
68943;DHT22;60852;52.190;4.422;2023-07-22T10:48:25;21.56;53.86
68943;DHT22;60852;52.190;4.422;2023-07-22T10:50:54;21.90;53.73
68943;DHT22;60852;52.190;4.422;2023-07-22T11:07:02;21.89;52.12
68943;DHT22;60852;52.190;4.422;2023-07-22T11:11:59;21.72;53.05
68943;DHT22;60852;52.190;4.422;2023-07-22T11:14:39;21.90;53.07
68943;DHT22;60852;52.190;4.422;2023-07-22T11:17:06;21.79;52.69
68943;DHT22;60852;52.190;4.422;2023-07-22T11:19:33;21.31;52.35
68943;DHT22;60852;52.190;4.422;2023-07-22T11:22:00;21.15;53.20
68943;DHT22;60852;52.190;4.422;2023-07-22T11:24:26;21.12;55.10
68943;DHT22;60852;52.190;4.422;2023-07-22T11:26:53;21.14;54.23
68943;DHT22;60852;52.190;4.422;2023-07-22T11:29:19;21.23;54.19
68943;DHT22;60852;52.190;4.422;2023-07-22T11:31:47;21.62;53.63
68943;DHT22;60852;52.190;4.422;2023-07-22T11:34:18;21.66;53.61
68943;DHT22;60852;52.190;4.422;2023-07-22T11:36:47;21.56;53.23
68943;DHT22;60852;52.190;4.422;2023-07-22T11:39:16;21.66;53.23
68943;DHT22;60852;52.190;4.422;2023-07-22T11:41:43;21.69;52.16
68943;DHT22;60852;52.190;4.422;2023-07-22T11:44:11;21.62;52.27
68943;DHT22;60852;52.190;4.422;2023-07-22T11:49:27;21.71;52.27
68943;DHT22;60852;52.190;4.422;2023-07-22T11:52:10;21.63;53.25
68943;DHT22;60852;52.190;4.422;2023-07-22T11:54:40;21.61;53.69
68943;DHT22;60852;52.190;4.422;2023-07-22T11:57:23;21.76;53.35
68943;DHT22;60852;52.190;4.422;2023-07-22T11:59:51;21.67;52.16
68943;DHT22;60852;52.190;4.422;2023-07-22T12:02:22;21.59;52.42
68943;DHT22;60852;52.190;4.422;2023-07-22T12:09:49;21.67;52.95
68943;DHT22;60852;52.190;4.422;2023-07-22T12:12:14;21.75;52.97
68943;DHT22;60852;52.190;4.422;2023-07-22T12:14:41;21.48;51.78
68943;DHT22;60852;52.190;4.422;2023-07-22T12:17:08;21.28;52.17
68943;DHT22;60852;52.190;4.422;2023-07-22T12:19:34;20.96;53.64
68943;DHT22;60852;52.190;4.422;2023-07-22T12:22:00;21.01;54.38
68943;DHT22;60852;52.190;4.422;2023-07-22T12:24:28;21.17;54.78
68943;DHT22;60852;52.190;4.422;2023-07-22T12:26:53;21.06;53.45
68943;DHT22;60852;52.190;4.422;2023-07-22T12:29:19;20.91;52.90
68943;DHT22;60852;52.190;4.422;2023-07-22T12:31:45;20.87;53.85
68943;DHT22;60852;52.190;4.422;2023-07-22T12:34:10;21.01;54.30
68943;DHT22;60852;52.190;4.422;2023-07-22T12:36:36;21.11;53.99
68943;DHT22;60852;52.190;4.422;2023-07-22T12:39:01;21.27;54.76
68943;DHT22;60852;52.190;4.422;2023-07-22T12:41:28;21.34;54.83
68943;DHT22;60852;52.190;4.422;2023-07-22T12:43:53;21.55;54.78
68943;DHT22;60852;52.190;4.422;2023-07-22T12:46:19;21.73;54.47
68943;DHT22;60852;52.190;4.422;2023-07-22T12:48:44;21.83;53.26
68943;DHT22;60852;52.190;4.422;2023-07-22T12:51:10;21.85;52.67
68943;DHT22;60852;52.190;4.422;2023-07-22T12:53:35;21.55;52.56
68943;DHT22;60852;52.190;4.422;2023-07-22T12:56:01;21.48;52.65
68943;DHT22;60852;52.190;4.422;2023-07-22T12:58:31;21.30;53.25
68943;DHT22;60852;52.190;4.422;2023-07-22T13:00:57;21.31;53.63
68943;DHT22;60852;52.190;4.422;2023-07-22T13:03:22;21.39;53.29
68943;DHT22;60852;52.190;4.422;2023-07-22T13:05:48;21.62;53.40
68943;DHT22;60852;52.190;4.422;2023-07-22T13:08:13;21.95;52.95
68943;DHT22;60852;52.190;4.422;2023-07-22T13:10:38;22.10;52.69
68943;DHT22;60852;52.190;4.422;2023-07-22T13:13:09;22.00;52.47
68943;DHT22;60852;52.190;4.422;2023-07-22T13:15:35;21.89;52.65
68943;DHT22;60852;52.190;4.422;2023-07-22T13:18:01;21.96;52.61
68943;DHT22;60852;52.190;4.422;2023-07-22T13:20:28;21.86;51.96
68943;DHT22;60852;52.190;4.422;2023-07-22T13:22:55;21.93;52.46
68943;DHT22;60852;52.190;4.422;2023-07-22T13:25:20;21.79;52.30
68943;DHT22;60852;52.190;4.422;2023-07-22T13:27:46;21.90;53.31
68943;DHT22;60852;52.190;4.422;2023-07-22T13:30:12;21.89;53.59
68943;DHT22;60852;52.190;4.422;2023-07-22T13:32:37;21.92;54.10
68943;DHT22;60852;52.190;4.422;2023-07-22T13:35:03;21.89;53.91
68943;DHT22;60852;52.190;4.422;2023-07-22T13:37:29;21.79;54.55
68943;DHT22;60852;52.190;4.422;2023-07-22T13:39:55;21.76;54.36
68943;DHT22;60852;52.190;4.422;2023-07-22T13:42:23;21.96;54.55
68943;DHT22;60852;52.190;4.422;2023-07-22T13:44:49;21.88;53.90
68943;DHT22;60852;52.190;4.422;2023-07-22T13:47:14;21.79;54.86
68943;DHT22;60852;52.190;4.422;2023-07-22T13:49:40;21.69;55.96
68943;DHT22;60852;52.190;4.422;2023-07-22T13:52:05;21.51;56.49
68943;DHT22;60852;52.190;4.422;2023-07-22T13:54:31;21.44;56.07
68943;DHT22;60852;52.190;4.422;2023-07-22T13:56:56;21.42;56.57
68943;DHT22;60852;52.190;4.422;2023-07-22T13:59:22;21.37;55.92
68943;DHT22;60852;52.190;4.422;2023-07-22T14:01:47;21.23;56.40
68943;DHT22;60852;52.190;4.422;2023-07-22T14:04:13;21.07;57.37
68943;DHT22;60852;52.190;4.422;2023-07-22T14:06:38;20.93;58.56
68943;DHT22;60852;52.190;4.422;2023-07-22T14:09:03;20.75;58.30
68943;DHT22;60852;52.190;4.422;2023-07-22T14:11:29;20.63;58.65
68943;DHT22;60852;52.190;4.422;2023-07-22T14:13:55;20.56;59.24
68943;DHT22;60852;52.190;4.422;2023-07-22T14:16:21;20.40;60.17
68943;DHT22;60852;52.190;4.422;2023-07-22T14:18:46;20.38;60.34
68943;DHT22;60852;52.190;4.422;2023-07-22T14:21:12;20.49;60.13
68943;DHT22;60852;52.190;4.422;2023-07-22T14:23:37;20.53;59.90
68943;DHT22;60852;52.190;4.422;2023-07-22T14:26:03;20.56;60.16
68943;DHT22;60852;52.190;4.422;2023-07-22T14:28:28;20.55;60.42
68943;DHT22;60852;52.190;4.422;2023-07-22T14:30:54;20.53;60.93
68943;DHT22;60852;52.190;4.422;2023-07-22T14:33:19;20.72;60.99
68943;DHT22;60852;52.190;4.422;2023-07-22T14:35:45;20.73;60.67
68943;DHT22;60852;52.190;4.422;2023-07-22T14:38:10;20.76;60.11
68943;DHT22;60852;52.190;4.422;2023-07-22T14:40:36;20.83;59.23
68943;DHT22;60852;52.190;4.422;2023-07-22T14:43:02;20.84;57.95
68943;DHT22;60852;52.190;4.422;2023-07-22T14:45:29;20.75;57.59
68943;DHT22;60852;52.190;4.422;2023-07-22T14:47:55;20.67;58.23
68943;DHT22;60852;52.190;4.422;2023-07-22T14:50:20;20.67;58.90
68943;DHT22;60852;52.190;4.422;2023-07-22T14:52:46;20.69;59.20
68943;DHT22;60852;52.190;4.422;2023-07-22T14:55:11;20.56;59.54
68943;DHT22;60852;52.190;4.422;2023-07-22T14:57:37;20.63;59.77
68943;DHT22;60852;52.190;4.422;2023-07-22T15:00:03;20.75;59.52
68943;DHT22;60852;52.190;4.422;2023-07-22T15:02:28;20.67;58.31
68943;DHT22;60852;52.190;4.422;2023-07-22T15:04:54;20.73;59.16
68943;DHT22;60852;52.190;4.422;2023-07-22T15:07:21;20.80;59.35
68943;DHT22;60852;52.190;4.422;2023-07-22T15:09:47;20.86;58.09
68943;DHT22;60852;52.190;4.422;2023-07-22T15:12:13;20.88;57.99
68943;DHT22;60852;52.190;4.422;2023-07-22T15:14:38;20.69;59.01
68943;DHT22;60852;52.190;4.422;2023-07-22T15:17:04;20.76;58.45
68943;DHT22;60852;52.190;4.422;2023-07-22T15:19:30;20.81;58.05
68943;DHT22;60852;52.190;4.422;2023-07-22T15:21:56;20.32;59.54
68943;DHT22;60852;52.190;4.422;2023-07-22T15:24:21;20.38;60.43
68943;DHT22;60852;52.190;4.422;2023-07-22T15:26:47;20.50;58.71
68943;DHT22;60852;52.190;4.422;2023-07-22T15:29:12;20.56;58.47
68943;DHT22;60852;52.190;4.422;2023-07-22T15:31:38;20.56;58.54
68943;DHT22;60852;52.190;4.422;2023-07-22T15:34:04;20.59;58.50
68943;DHT22;60852;52.190;4.422;2023-07-22T15:36:30;20.63;58.38
68943;DHT22;60852;52.190;4.422;2023-07-22T15:38:55;20.38;58.70
68943;DHT22;60852;52.190;4.422;2023-07-22T15:41:21;20.38;59.20
68943;DHT22;60852;52.190;4.422;2023-07-22T15:43:47;20.46;58.96
68943;DHT22;60852;52.190;4.422;2023-07-22T15:46:12;20.52;58.57
68943;DHT22;60852;52.190;4.422;2023-07-22T15:48:37;20.40;58.99
68943;DHT22;60852;52.190;4.422;2023-07-22T15:51:03;20.45;58.75
68943;DHT22;60852;52.190;4.422;2023-07-22T15:53:29;20.45;58.52
68943;DHT22;60852;52.190;4.422;2023-07-22T15:55:54;20.42;58.98